Time;durP1;ratioP1;P1;durP2;ratioP2;P2;SDS_P1;SDS_P2;PMS_P1;PMS_P2;Temp;Humidity;BMP_temperature;BMP_pressure;BME280_temperature;BME280_humidity;BME280_pressure;Samples;Min_cycle;Max_cycle;Signal;HPM_P1;HPM_P2
2022/07/20 07:59:01;;;;;;;14.48;11.45;;;;;;;25.06;53.10;101554.94;5297464;27;20357;-73
2022/07/20 08:01:34;;;;;;;14.90;11.18;;;;;;;25.03;52.27;101542.31;5287790;28;20078;-73
2022/07/20 08:04:05;;;;;;;16.15;10.23;;;;;;;25.03;51.64;101530.97;5265336;28;20071;-72
2022/07/20 08:06:36;;;;;;;11.40;9.43;;;;;;;25.10;51.38;101528.25;5272654;28;20107;-73
2022/07/20 08:09:08;;;;;;;13.45;9.30;;;;;;;25.17;50.92;101516.28;5259258;28;20021;-72
2022/07/20 08:11:39;;;;;;;12.50;9.45;;;;;;;25.14;50.47;101514.16;5278505;28;20108;-72
2022/07/20 08:14:10;;;;;;;12.30;9.48;;;;;;;25.15;50.32;101507.28;5279064;28;20028;-71
2022/07/20 08:16:43;;;;;;;11.32;9.88;;;;;;;25.19;50.21;101511.06;5280214;28;20357;-72
2022/07/20 08:19:14;;;;;;;12.90;10.35;;;;;;;25.29;49.81;101513.28;5259811;28;20462;-72
2022/07/20 08:21:45;;;;;;;11.73;10.00;;;;;;;25.29;50.43;101521.81;5266791;28;20040;-72
2022/07/20 08:24:16;;;;;;;12.68;10.15;;;;;;;25.34;50.42;101523.53;5278431;28;20029;-72
2022/07/20 08:26:48;;;;;;;14.55;10.30;;;;;;;25.19;50.55;101510.25;5292817;28;20112;-72
2022/07/20 08:29:19;;;;;;;11.43;10.23;;;;;;;25.09;50.63;101526.63;5279308;28;20104;-72
2022/07/20 08:31:50;;;;;;;16.15;14.40;;;;;;;25.47;50.60;101535.56;5278451;28;20036;-72
2022/07/20 08:34:22;;;;;;;12.70;11.35;;;;;;;25.45;50.63;101538.75;5276620;28;20090;-73
2022/07/20 08:36:53;;;;;;;14.10;10.07;;;;;;;25.65;50.51;101547.25;5279271;28;20568;-73
2022/07/20 08:39:25;;;;;;;13.52;9.63;;;;;;;25.79;50.13;101558.88;5279328;28;20465;-72
2022/07/20 08:41:56;;;;;;;13.02;10.50;;;;;;;25.76;49.79;101562.47;5278391;28;20052;-72
2022/07/20 08:44:27;;;;;;;15.43;11.07;;;;;;;25.46;50.07;101554.59;5279322;28;20024;-73
2022/07/20 08:46:59;;;;;;;11.48;9.65;;;;;;;25.74;49.75;101550.66;5285104;28;20021;-72
2022/07/20 08:49:31;;;;;;;13.93;10.75;;;;;;;25.89;49.35;101544.06;5299814;28;20052;-72
2022/07/20 08:52:04;;;;;;;13.35;10.90;;;;;;;25.93;49.40;101552.69;5274480;28;20087;-72
2022/07/20 08:54:36;;;;;;;11.55;10.13;;;;;;;26.05;49.00;101548.81;5272526;28;20354;-73
2022/07/20 08:57:12;;;;;;;13.00;10.45;;;;;;;25.93;48.65;101535.63;5275135;28;20047;-72
2022/07/20 08:59:45;;;;;;;17.67;15.57;;;;;;;25.72;49.08;101527.47;5279078;28;20032;-73
2022/07/20 09:02:17;;;;;;;18.10;15.60;;;;;;;25.54;50.04;101502.44;5292640;28;20154;-73
2022/07/20 09:04:55;;;;;;;12.07;10.50;;;;;;;25.75;49.86;101504.03;5299793;28;20103;-72
2022/07/20 09:07:43;;;;;;;13.20;10.73;;;;;;;25.69;49.66;101525.41;5299327;28;20028;-72
2022/07/20 09:10:17;;;;;;;13.00;10.48;;;;;;;25.74;49.76;101539.28;5285679;28;20476;-72
2022/07/20 09:12:59;;;;;;;13.30;10.10;;;;;;;25.85;49.64;101548.03;5285939;28;20067;-72
2022/07/20 09:15:42;;;;;;;12.18;11.02;;;;;;;26.06;49.10;101559.00;5286066;28;20332;-74
2022/07/20 09:18:27;;;;;;;15.80;11.80;;;;;;;26.04;48.87;101599.16;5277446;28;20075;-73
2022/07/20 09:21:00;;;;;;;;;;;;;;;26.20;48.61;101616.09;5272336;28;20025;-77
2022/07/20 09:23:33;;;;;;;17.25;11.48;;;;;;;25.93;49.32;101633.06;5283571;28;19912;-76
2022/07/20 09:26:07;;;;;;;19.00;11.70;;;;;;;25.99;49.71;101640.06;5284481;28;20028;-78
2022/07/20 09:28:40;;;;;;;15.50;11.68;;;;;;;26.06;49.45;101647.09;5277116;28;20059;-75
2022/07/20 09:31:33;;;;;;;14.32;11.60;;;;;;;26.24;49.53;101631.19;5282689;28;20396;-76
2022/07/20 09:34:07;;;;;;;16.35;11.10;;;;;;;26.35;48.77;101629.34;5283444;28;20146;-77
2022/07/20 09:36:44;;;;;;;14.80;11.30;;;;;;;26.32;48.60;101604.53;5286963;28;20068;-77
2022/07/20 09:39:17;;;;;;;12.73;11.43;;;;;;;26.40;48.30;101611.97;5280465;28;20095;-77
2022/07/20 09:41:56;;;;;;;13.93;10.98;;;;;;;26.34;48.59;101619.19;5271768;28;20024;-74
2022/07/20 09:44:30;;;;;;;11.93;10.65;;;;;;;26.41;48.09;101613.63;5282665;28;20024;-76
2022/07/20 09:47:11;;;;;;;15.43;13.80;;;;;;;26.53;48.06;101604.09;5283529;28;20025;-75
2022/07/20 09:49:42;;;;;;;11.40;9.60;;;;;;;26.53;47.28;101603.28;5283322;28;20036;-78
2022/07/20 09:52:13;;;;;;;13.55;10.73;;;;;;;26.63;47.37;101594.09;5283878;28;20025;-76
2022/07/20 09:54:45;;;;;;;12.45;9.57;;;;;;;26.79;47.26;101591.94;5284763;28;20077;-76
2022/07/20 09:57:19;;;;;;;13.23;9.57;;;;;;;26.85;47.14;101581.84;5285099;28;20063;-78
2022/07/20 09:59:51;;;;;;;13.13;9.90;;;;;;;26.95;46.52;101599.47;5284496;28;20082;-80
2022/07/20 10:02:23;;;;;;;11.10;9.80;;;;;;;26.77;46.68;101591.50;5285115;28;20029;-81
2022/07/20 10:04:56;;;;;;;16.90;9.85;;;;;;;26.91;47.02;101587.22;5285062;28;20483;-80
2022/07/20 10:07:29;;;;;;;13.18;10.52;;;;;;;26.89;47.15;101593.28;5285071;28;20032;-81
2022/07/20 10:10:01;;;;;;;11.25;9.02;;;;;;;26.91;46.62;101613.63;5285072;28;20035;-80
2022/07/20 10:12:33;;;;;;;12.50;9.60;;;;;;;26.94;46.15;101623.44;5284247;28;20125;-80
2022/07/20 10:15:16;;;;;;;10.75;9.60;;;;;;;27.02;46.40;101613.78;5297275;28;20039;-81
2022/07/20 10:17:47;;;;;;;14.95;10.88;;;;;;;26.93;47.15;101610.41;5306269;28;20486;-81
2022/07/20 10:20:30;;;;;;;13.73;10.25;;;;;;;27.08;46.88;101610.22;5293161;28;20029;-81
2022/07/20 10:23:28;;;;;;;12.75;10.20;;;;;;;27.07;46.65;101604.91;5286381;28;20024;-81
2022/07/20 10:26:00;;;;;;;15.63;9.75;;;;;;;27.01;46.72;101589.38;5297246;28;20556;-81
2022/07/20 10:28:37;;;;;;;10.23;8.80;;;;;;;27.05;46.92;101595.97;5292748;28;20032;-82
2022/07/20 10:31:16;;;;;;;10.80;9.13;;;;;;;27.08;47.07;101593.16;5275105;28;20044;-81
2022/07/20 10:33:47;;;;;;;12.05;10.80;;;;;;;26.96;47.68;101589.72;5283663;28;20472;-83
2022/07/20 10:39:46;;;;;;;10.63;8.43;;;;;;;27.25;46.08;101583.25;5238433;28;20037;-78
2022/07/20 10:42:22;;;;;;;11.00;8.70;;;;;;;27.20;45.83;101588.44;5302832;28;20544;-76
2022/07/20 10:44:54;;;;;;;11.13;8.00;;;;;;;27.28;45.29;101593.06;5279841;28;20029;-79
2022/07/20 10:47:54;;;;;;;12.18;7.93;;;;;;;27.51;45.00;101590.09;5264030;28;20056;-84
2022/07/20 10:50:29;;;;;;;12.52;8.57;;;;;;;27.60;44.64;101582.03;5266026;28;20045;-82
2022/07/20 10:53:13;;;;;;;9.32;8.35;;;;;;;27.63;44.64;101586.13;5246317;28;20538;-83
2022/07/20 10:55:44;;;;;;;13.63;9.85;;;;;;;27.67;45.08;101582.13;5263076;28;20054;-83
2022/07/20 10:58:39;;;;;;;12.50;9.02;;;;;;;27.74;45.11;101587.91;5263525;28;20059;-84
2022/07/20 11:01:12;;;;;;;9.57;8.02;;;;;;;27.83;44.42;101598.19;5278157;28;20021;-84
2022/07/20 11:03:46;;;;;;;21.67;19.67;;;;;;;27.62;44.83;101602.41;5284109;28;20059;-79
2022/07/20 11:06:23;;;;;;;10.02;7.72;;;;;;;27.74;44.97;101602.16;5283346;28;20028;-78
2022/07/20 11:08:57;;;;;;;12.02;9.15;;;;;;;27.72;44.60;101613.13;5265849;28;20392;-77
2022/07/20 11:11:34;;;;;;;13.85;9.82;;;;;;;27.89;44.93;101599.47;5271634;28;20099;-78
2022/07/20 11:14:10;;;;;;;11.40;7.90;;;;;;;27.95;45.08;101595.09;5288691;28;20087;-85
2022/07/20 11:16:42;;;;;;;15.45;9.98;;;;;;;28.12;44.55;101594.44;5303845;28;20028;-85
2022/07/20 11:19:13;;;;;;;8.57;7.60;;;;;;;28.11;43.81;101589.94;5285707;28;20032;-79
2022/07/20 11:21:53;;;;;;;11.75;8.25;;;;;;;28.13;43.98;101590.38;5288234;28;20120;-81
2022/07/20 11:24:27;;;;;;;12.45;7.47;;;;;;;28.12;43.22;101594.44;5273501;28;20124;-84
2022/07/20 11:27:13;;;;;;;15.65;8.48;;;;;;;28.41;43.21;101583.28;5287938;28;20071;-84
2022/07/20 11:29:49;;;;;;;8.73;7.82;;;;;;;28.34;43.75;101588.94;5283811;28;20078;-85
2022/07/20 11:32:21;;;;;;;6.75;5.97;;;;;;;28.35;41.21;101582.00;5274906;28;20040;-84
2022/07/20 11:34:53;;;;;;;9.25;5.78;;;;;;;28.40;41.78;101588.19;5287905;28;20032;-81
2022/07/20 11:37:25;;;;;;;7.13;5.57;;;;;;;28.37;40.88;101585.28;5303348;28;20086;-82
2022/07/20 11:39:56;;;;;;;11.65;6.03;;;;;;;28.38;41.62;101576.34;5305286;28;20036;-80
2022/07/20 11:42:28;;;;;;;18.02;6.95;;;;;;;28.45;41.04;101569.88;5308919;28;20107;-82
2022/07/20 11:45:01;;;;;;;10.60;6.30;;;;;;;28.63;41.60;101581.44;5312937;28;20080;-81
2022/07/20 11:47:33;;;;;;;9.32;6.63;;;;;;;28.69;41.14;101579.03;5314879;28;20031;-82
2022/07/20 11:50:21;;;;;;;7.20;5.28;;;;;;;28.76;40.18;101582.78;5305333;28;20024;-83
2022/07/20 11:52:52;;;;;;;6.70;4.95;;;;;;;28.87;40.60;101588.53;5283623;28;20421;-83
2022/07/20 11:55:35;;;;;;;8.40;5.55;;;;;;;28.91;40.04;101595.06;5296160;28;20032;-84
2022/07/20 11:58:06;;;;;;;12.38;5.22;;;;;;;28.95;39.70;101583.69;5303507;28;20430;-83
2022/07/20 12:00:38;;;;;;;9.05;4.57;;;;;;;29.04;39.36;101595.56;5282172;28;20115;-84
2022/07/20 12:03:09;;;;;;;9.35;5.13;;;;;;;29.19;39.05;101597.31;5283862;28;20119;-78
2022/07/20 12:05:43;;;;;;;8.35;5.13;;;;;;;29.01;40.02;101610.63;5282410;28;20060;-82
2022/07/20 12:08:18;;;;;;;8.97;5.93;;;;;;;28.95;40.58;101613.06;5281036;28;20028;-80
2022/07/20 12:10:49;;;;;;;6.07;4.93;;;;;;;29.05;40.81;101602.94;5282714;28;20112;-82
2022/07/20 12:13:21;;;;;;;6.53;5.05;;;;;;;28.87;40.09;101611.38;5283670;28;20101;-80
2022/07/20 12:15:59;;;;;;;12.00;10.80;;;;;;;28.70;40.14;101600.66;5270327;28;20033;-80
2022/07/20 12:18:38;;;;;;;6.10;4.40;;;;;;;28.85;40.28;101604.44;5301238;28;20509;-80
2022/07/20 12:21:16;;;;;;;6.85;4.35;;;;;;;28.78;40.17;101600.28;5302351;28;20048;-79
2022/07/20 12:23:52;;;;;;;5.68;4.78;;;;;;;28.47;40.53;101604.53;5283343;28;20099;-80
2022/07/20 12:26:27;;;;;;;6.05;4.30;;;;;;;28.46;40.90;101588.66;5282532;28;20021;-80
2022/07/20 12:29:20;;;;;;;8.68;5.40;;;;;;;28.75;40.48;101586.00;5282911;28;20055;-80
2022/07/20 12:32:00;;;;;;;5.35;4.40;;;;;;;28.54;40.68;101607.47;5283226;28;20016;-80
2022/07/20 12:34:48;;;;;;;6.90;4.20;;;;;;;28.71;40.09;101610.84;5283778;28;20031;-79
2022/07/20 12:37:21;;;;;;;6.82;5.28;;;;;;;28.51;40.87;101616.00;5283276;28;20071;-79
2022/07/20 12:39:55;;;;;;;22.98;20.60;;;;;;;28.37;41.34;101608.09;5281527;28;20476;-80
2022/07/20 12:42:27;;;;;;;7.05;5.20;;;;;;;28.41;41.48;101600.41;5282350;28;20508;-79
2022/07/20 12:45:06;;;;;;;6.85;5.32;;;;;;;28.30;43.47;101608.03;5284621;28;20468;-81
2022/07/20 12:47:37;;;;;;;6.78;5.45;;;;;;;28.41;43.90;101606.09;5285951;28;20032;-82
2022/07/20 12:50:09;;;;;;;7.72;6.53;;;;;;;28.55;43.82;101614.78;5286462;28;20029;-81
2022/07/20 12:52:42;;;;;;;7.13;6.05;;;;;;;28.57;44.07;101606.66;5287622;28;20045;-82
2022/07/20 12:55:15;;;;;;;6.40;5.15;;;;;;;28.40;44.85;101613.00;5285893;28;20030;-83
2022/07/20 12:57:47;;;;;;;6.60;5.88;;;;;;;28.16;45.54;101608.72;5284513;28;20048;-80
2022/07/20 13:00:19;;;;;;;6.07;5.47;;;;;;;28.12;45.63;101607.84;5288045;28;20032;-80
2022/07/20 13:02:50;;;;;;;7.60;5.90;;;;;;;27.74;46.47;101607.84;5297726;28;20048;-80
2022/07/20 13:05:21;;;;;;;7.68;5.78;;;;;;;27.99;46.28;101618.72;5286137;28;20078;-78
2022/07/20 13:07:57;;;;;;;7.28;6.20;;;;;;;28.15;45.87;101613.63;5285036;28;20471;-78
2022/07/20 13:10:29;;;;;;;8.13;6.05;;;;;;;28.32;45.55;101623.53;5286484;28;20032;-80
2022/07/20 13:13:01;;;;;;;12.43;5.65;;;;;;;28.33;44.47;101628.03;5255145;28;20033;-80
2022/07/20 13:15:32;;;;;;;6.97;5.85;;;;;;;28.29;44.18;101617.81;5284748;28;20032;-79
2022/07/20 13:18:10;;;;;;;5.72;5.00;;;;;;;28.58;43.55;101608.31;5284643;28;20102;-82
2022/07/20 13:20:42;;;;;;;5.88;5.32;;;;;;;28.82;43.41;101603.19;5283914;28;20039;-81
2022/07/20 13:23:13;;;;;;;22.15;7.55;;;;;;;29.01;42.71;101605.75;5282785;28;20357;-81
2022/07/20 13:25:45;;;;;;;7.53;5.82;;;;;;;28.84;42.32;101615.03;5285275;28;20017;-81
2022/07/20 13:28:17;;;;;;;6.03;5.25;;;;;;;28.47;43.22;101635.94;5285137;28;20206;-79
2022/07/20 13:30:49;;;;;;;9.63;6.60;;;;;;;28.41;42.90;101640.34;5283958;28;20345;-79
2022/07/20 13:33:21;;;;;;;6.97;6.28;;;;;;;28.38;43.50;101643.97;5273645;28;20027;-79
2022/07/20 13:35:52;;;;;;;41.88;38.22;;;;;;;28.45;43.81;101649.75;5277209;28;20115;-81
2022/07/20 13:38:25;;;;;;;9.95;8.52;;;;;;;28.31;44.42;101658.97;5277302;28;20077;-82
2022/07/20 13:40:56;;;;;;;11.52;7.15;;;;;;;27.89;45.65;101662.19;5296437;28;20024;-82
2022/07/20 13:43:28;;;;;;;10.20;8.68;;;;;;;27.99;46.04;101649.25;5284595;28;20046;-80
2022/07/20 13:46:00;;;;;;;9.48;7.15;;;;;;;27.93;46.37;101648.81;5283432;28;20100;-76
2022/07/20 13:48:31;;;;;;;9.70;7.32;;;;;;;27.67;46.82;101647.66;5265620;28;20495;-77
2022/07/20 13:51:03;;;;;;;15.40;13.73;;;;;;;27.64;46.97;101644.78;5277189;28;20054;-78
2022/07/20 13:53:35;;;;;;;12.23;7.57;;;;;;;27.77;46.67;101654.69;5285031;28;20028;-77
2022/07/20 13:56:11;;;;;;;8.63;7.72;;;;;;;27.77;46.89;101653.88;5285036;28;20074;-79
2022/07/20 13:58:42;;;;;;;9.40;8.40;;;;;;;27.32;47.98;101640.28;5282247;28;20094;-79
2022/07/20 14:01:14;;;;;;;62.40;56.15;;;;;;;27.56;47.93;101643.03;5284859;28;20472;-81
2022/07/20 14:03:46;;;;;;;11.50;8.98;;;;;;;27.09;49.07;101625.28;5285507;28;20082;-80
2022/07/20 14:06:18;;;;;;;11.02;8.77;;;;;;;27.24;49.00;101624.31;5273331;28;20033;-80
2022/07/20 14:08:49;;;;;;;9.10;8.10;;;;;;;27.16;49.36;101622.53;5282720;28;20032;-79
2022/07/20 14:11:20;;;;;;;9.15;8.25;;;;;;;27.14;49.37;101627.78;5273127;28;20029;-80
2022/07/20 14:13:52;;;;;;;10.98;8.60;;;;;;;27.54;48.67;101634.88;5285031;28;20025;-79
2022/07/20 14:16:24;;;;;;;10.48;8.68;;;;;;;27.44;48.89;101629.88;5299006;28;20016;-76
2022/07/20 14:18:56;;;;;;;10.48;8.38;;;;;;;27.94;47.99;101611.38;5283621;28;20028;-78
2022/07/20 14:21:27;;;;;;;12.00;7.90;;;;;;;27.81;48.47;101606.28;5284652;28;20384;-75
2022/07/20 14:23:58;;;;;;;9.80;8.77;;;;;;;28.15;47.88;101607.09;5283866;28;20029;-79
2022/07/20 14:26:29;;;;;;;16.00;9.10;;;;;;;28.08;47.95;101602.13;5279215;28;20058;-79
2022/07/20 14:29:03;;;;;;;10.13;8.52;;;;;;;28.58;47.48;101610.34;5283772;28;20024;-78
2022/07/20 14:31:34;;;;;;;10.15;8.95;;;;;;;28.71;46.69;101622.25;5274397;28;20052;-79
2022/07/20 14:34:05;;;;;;;10.63;9.63;;;;;;;28.65;47.01;101623.84;5284383;28;20056;-74
2022/07/20 14:36:37;;;;;;;10.05;8.50;;;;;;;28.32;47.62;101628.41;5285658;28;20376;-79
2022/07/20 14:39:09;;;;;;;11.25;9.48;;;;;;;28.42;47.27;101616.28;5283474;28;20032;-80
2022/07/20 14:41:40;;;;;;;11.38;8.85;;;;;;;28.43;47.62;101622.81;5284191;28;20031;-80
2022/07/20 14:44:12;;;;;;;11.68;8.40;;;;;;;28.82;46.86;101623.97;5275226;28;20021;-78
2022/07/20 14:46:44;;;;;;;9.38;8.43;;;;;;;27.94;48.92;101619.06;5264830;28;20083;-80
2022/07/20 14:49:16;;;;;;;14.07;11.00;;;;;;;28.22;48.53;101614.88;5284481;28;20032;-80
2022/07/20 14:51:47;;;;;;;9.55;8.30;;;;;;;28.44;48.33;101613.91;5283086;28;20024;-80
2022/07/20 14:54:19;;;;;;;11.15;9.25;;;;;;;28.58;47.73;101614.03;5294582;28;20109;-80
2022/07/20 14:56:50;;;;;;;12.65;9.27;;;;;;;28.49;47.04;101618.44;5304382;28;20024;-76
2022/07/20 14:59:21;;;;;;;9.60;8.68;;;;;;;28.48;47.35;101603.34;5283359;28;20112;-75
2022/07/20 15:01:53;;;;;;;10.57;8.57;;;;;;;28.52;47.09;101612.75;5282912;28;20021;-75
2022/07/20 15:04:24;;;;;;;11.98;8.98;;;;;;;28.63;46.84;101629.13;5283791;28;20033;-81
2022/07/20 15:06:55;;;;;;;19.08;17.08;;;;;;;28.52;47.57;101618.44;5283588;28;20024;-80
2022/07/20 15:09:27;;;;;;;10.50;8.93;;;;;;;28.89;46.78;101611.81;5282834;28;20105;-77
2022/07/20 15:11:58;;;;;;;10.40;9.05;;;;;;;28.75;46.37;101611.69;5283253;28;20096;-77
2022/07/20 15:14:29;;;;;;;10.40;9.13;;;;;;;28.71;46.39;101608.81;5282493;28;20514;-76
2022/07/20 15:17:02;;;;;;;9.93;8.90;;;;;;;28.57;46.90;101620.94;5283468;28;20024;-77
2022/07/20 15:19:34;;;;;;;13.82;9.02;;;;;;;28.40;47.56;101613.00;5294675;28;20020;-78
2022/07/20 15:22:05;;;;;;;9.70;8.57;;;;;;;28.51;47.84;101596.84;5281997;28;20403;-77
2022/07/20 15:24:37;;;;;;;9.25;8.35;;;;;;;28.61;47.39;101590.41;5286671;28;20036;-78
2022/07/20 15:27:08;;;;;;;13.82;9.30;;;;;;;28.44;47.93;101585.38;5281902;28;20090;-78
2022/07/20 15:29:40;;;;;;;12.27;8.73;;;;;;;28.69;47.25;101567.63;5297348;28;20024;-72
2022/07/20 15:32:11;;;;;;;10.25;9.13;;;;;;;28.78;46.88;101576.66;5295684;28;20372;-72
2022/07/20 15:34:42;;;;;;;11.38;8.57;;;;;;;28.71;46.68;101576.59;5275057;28;20054;-72
2022/07/20 15:37:14;;;;;;;12.65;9.98;;;;;;;28.77;46.67;101575.84;5279564;28;20079;-72
2022/07/20 15:39:45;;;;;;;10.07;9.07;;;;;;;28.87;46.90;101573.47;5285057;28;20020;-74
2022/07/20 15:42:17;;;;;;;9.43;8.27;;;;;;;28.88;47.05;101575.91;5281415;28;20442;-72
2022/07/20 15:44:48;;;;;;;11.55;9.70;;;;;;;28.03;49.13;101579.69;5282554;28;20095;-71
2022/07/20 15:47:20;;;;;;;9.75;8.80;;;;;;;28.33;48.83;101570.19;5303892;28;20043;-72
2022/07/20 15:49:51;;;;;;;12.07;9.63;;;;;;;28.30;48.84;101573.81;5286307;28;20127;-72
2022/07/20 15:52:22;;;;;;;11.82;8.90;;;;;;;28.40;48.74;101576.75;5297450;28;20056;-72
2022/07/20 15:54:53;;;;;;;11.40;8.68;;;;;;;28.48;47.98;101586.22;5281426;28;20033;-73
2022/07/20 15:57:26;;;;;;;9.25;7.10;;;;;;;28.46;43.98;101590.69;5294450;28;20062;-73
2022/07/20 15:59:57;;;;;;;8.45;6.75;;;;;;;28.46;44.38;101597.22;5280809;28;20043;-71
2022/07/20 16:02:30;;;;;;;7.43;6.68;;;;;;;28.56;43.98;101599.34;5280376;28;20029;-77
2022/07/20 16:05:02;;;;;;;8.40;7.55;;;;;;;28.46;44.08;101600.06;5280488;28;20115;-71
2022/07/20 16:07:33;;;;;;;8.13;7.15;;;;;;;28.63;43.51;101597.75;5281123;28;20025;-70
2022/07/20 16:10:05;;;;;;;8.23;6.72;;;;;;;28.58;43.79;101591.19;5280555;28;20086;-71
2022/07/20 16:12:38;;;;;;;9.40;7.47;;;;;;;28.30;44.29;101588.06;5291068;28;20036;-69
2022/07/20 16:15:09;;;;;;;9.65;7.50;;;;;;;28.27;44.91;101598.22;5303608;28;20028;-69
2022/07/20 16:17:41;;;;;;;14.88;10.88;;;;;;;27.95;45.20;101583.69;5302945;28;20387;-69
2022/07/20 16:20:12;;;;;;;11.20;10.05;;;;;;;28.23;44.58;101576.63;5306664;28;20076;-69
2022/07/20 16:22:43;;;;;;;8.20;7.40;;;;;;;28.29;44.62;101575.03;5304513;28;20131;-70
2022/07/20 16:25:15;;;;;;;8.43;7.63;;;;;;;28.28;44.57;101568.50;5285831;28;20107;-69
2022/07/20 16:27:47;;;;;;;9.00;6.63;;;;;;;28.48;44.63;101563.41;5303110;28;20109;-67
2022/07/20 16:30:20;;;;;;;7.95;7.18;;;;;;;28.50;44.20;101560.94;5307662;28;20102;-68
2022/07/20 16:32:52;;;;;;;9.02;8.05;;;;;;;28.43;44.40;101551.50;5294688;28;20043;-73
2022/07/20 16:35:23;;;;;;;8.35;7.18;;;;;;;28.52;44.29;101547.13;5290914;28;20029;-73
2022/07/20 16:37:55;;;;;;;8.98;7.22;;;;;;;28.53;44.32;101545.91;5287080;28;20032;-74
2022/07/20 16:40:26;;;;;;;8.13;7.32;;;;;;;28.44;44.15;101559.69;5285926;28;20131;-73
2022/07/20 16:42:58;;;;;;;9.68;8.00;;;;;;;28.49;44.38;101553.63;5286476;28;20051;-73
2022/07/20 16:45:29;;;;;;;9.63;8.57;;;;;;;28.54;44.73;101561.81;5286206;28;20383;-73
2022/07/20 16:48:00;;;;;;;8.45;7.55;;;;;;;28.54;44.54;101553.25;5285905;28;20380;-73
2022/07/20 16:50:32;;;;;;;9.25;8.35;;;;;;;28.49;44.45;101550.78;5285173;28;20027;-74
2022/07/20 16:53:03;;;;;;;8.68;7.78;;;;;;;28.57;44.48;101558.16;5285588;28;20082;-73
2022/07/20 16:55:36;;;;;;;16.52;15.00;;;;;;;28.44;45.08;101550.31;5286000;28;20453;-74
2022/07/20 16:58:08;;;;;;;9.45;8.63;;;;;;;28.56;45.28;101553.69;5285640;28;20052;-73
2022/07/20 17:00:40;;;;;;;10.23;9.00;;;;;;;28.25;45.70;101549.34;5285597;28;20025;-73
2022/07/20 17:03:11;;;;;;;9.82;8.90;;;;;;;28.31;45.87;101564.06;5286424;28;20020;-75
2022/07/20 17:05:42;;;;;;;9.95;8.95;;;;;;;28.65;44.37;101566.78;5286102;28;20162;-74
2022/07/20 17:08:15;;;;;;;10.25;7.65;;;;;;;28.55;44.55;101569.16;5285527;28;20029;-74
2022/07/20 17:10:47;;;;;;;11.18;8.68;;;;;;;28.44;44.73;101568.25;5288956;28;20119;-74
2022/07/20 17:13:19;;;;;;;9.02;7.95;;;;;;;28.36;43.72;101563.69;5307405;28;20027;-74
2022/07/20 17:15:50;;;;;;;8.90;8.10;;;;;;;28.33;42.91;101555.91;5303464;28;20031;-73
2022/07/20 17:18:21;;;;;;;10.00;8.43;;;;;;;28.31;43.45;101561.19;5288567;28;20029;-75
2022/07/20 17:20:53;;;;;;;9.82;8.20;;;;;;;28.39;43.35;101572.25;5289286;28;20444;-74
2022/07/20 17:23:24;;;;;;;9.48;8.02;;;;;;;28.44;44.01;101562.56;5305706;28;20109;-73
2022/07/20 17:25:56;;;;;;;9.20;7.78;;;;;;;28.48;44.35;101551.16;5307002;28;20028;-73
2022/07/20 17:28:27;;;;;;;9.38;8.00;;;;;;;28.43;44.65;101555.19;5306442;28;20106;-67
